createdAt,value
2022-12-15T00:02:02.628Z,26.95
2022-12-15T00:04:47.597Z,24.92
2022-12-15T00:07:30.011Z,26.35
2022-12-15T00:10:12.354Z,23.20
2022-12-15T00:12:54.761Z,27.77
2022-12-15T00:15:37.393Z,33.95
2022-12-15T00:18:20.686Z,28.25
2022-12-15T00:21:05.636Z,30.38
2022-12-15T00:23:48.048Z,28.58
2022-12-15T00:26:32.240Z,34.20
2022-12-15T00:29:14.615Z,29.92
2022-12-15T00:31:57.173Z,30.80
2022-12-15T00:34:39.680Z,27.27
2022-12-15T00:37:24.746Z,26.55
2022-12-15T00:42:34.768Z,18.85
2022-12-15T00:45:04.988Z,22.23
2022-12-15T00:47:33.273Z,23.05
2022-12-15T00:50:15.915Z,24.40
2022-12-15T00:53:00.863Z,27.48
2022-12-15T00:55:43.648Z,25.15
2022-12-15T00:58:26.244Z,25.38
2022-12-15T01:01:08.609Z,25.90
2022-12-15T01:03:51.060Z,23.92
2022-12-15T01:06:35.683Z,22.38
2022-12-15T01:09:22.839Z,26.60
2022-12-15T01:12:05.451Z,27.08
2022-12-15T01:14:48.291Z,20.58
2022-12-15T01:17:30.917Z,22.48
2022-12-15T01:20:13.294Z,26.55
2022-12-15T01:22:43.923Z,26.10
2022-12-15T01:25:18.206Z,27.40
2022-12-15T01:27:48.972Z,25.23
2022-12-15T01:30:21.569Z,21.13
2022-12-15T01:32:52.023Z,23.15
2022-12-15T01:35:22.382Z,23.20
2022-12-15T01:37:52.403Z,23.42
2022-12-15T01:40:37.656Z,22.17
2022-12-15T01:43:12.648Z,20.55
2022-12-15T01:45:59.454Z,21.92
2022-12-15T01:48:36.419Z,21.90
2022-12-15T01:51:22.661Z,18.95
2022-12-15T01:54:04.208Z,25.10
2022-12-15T01:56:41.004Z,19.77
2022-12-15T01:59:16.306Z,23.27
2022-12-15T02:01:49.524Z,23.40
2022-12-15T02:04:22.521Z,24.45
2022-12-15T02:06:53.260Z,19.20
2022-12-15T02:09:25.766Z,23.25
2022-12-15T02:12:07.373Z,20.40
2022-12-15T02:14:53.492Z,21.30
2022-12-15T02:17:35.186Z,21.25
2022-12-15T02:20:45.144Z,21.42
2022-12-15T02:23:58.315Z,21.63
2022-12-15T02:27:15.812Z,18.63
2022-12-15T02:30:21.493Z,23.40
2022-12-15T02:33:06.444Z,20.67
2022-12-15T02:35:45.971Z,22.35
2022-12-15T02:38:16.142Z,22.25
2022-12-15T02:40:46.184Z,24.67
2022-12-15T02:43:16.217Z,17.20
2022-12-15T02:45:58.880Z,18.05
2022-12-15T02:48:37.243Z,17.27
2022-12-15T02:51:24.018Z,21.02
2022-12-15T02:54:09.679Z,20.42
2022-12-15T02:56:47.700Z,17.98
2022-12-15T02:59:26.871Z,24.77
2022-12-15T03:02:01.404Z,24.88
2022-12-15T03:04:34.818Z,20.38
2022-12-15T03:07:07.428Z,30.13
2022-12-15T03:09:37.573Z,26.65
2022-12-15T03:12:08.504Z,19.77
2022-12-15T03:14:38.477Z,21.02
2022-12-15T03:17:08.907Z,20.08
2022-12-15T03:19:41.754Z,20.17
2022-12-15T03:22:11.797Z,25.80
2022-12-15T03:24:41.771Z,20.10
2022-12-15T03:27:11.746Z,32.35
2022-12-15T03:29:41.704Z,31.02
2022-12-15T03:32:11.738Z,28.13
2022-12-15T03:34:45.294Z,19.83
2022-12-15T03:37:15.493Z,23.85
2022-12-15T03:39:45.837Z,23.23
2022-12-15T03:42:35.928Z,20.27
2022-12-15T03:45:06.341Z,21.25
2022-12-15T03:47:36.322Z,17.52
2022-12-15T03:50:09.775Z,21.00
2022-12-15T03:52:40.032Z,17.83
2022-12-15T03:55:11.041Z,21.60
2022-12-15T03:57:42.262Z,15.32
2022-12-15T04:00:16.342Z,20.92
2022-12-15T04:02:46.511Z,22.38
2022-12-15T04:05:28.617Z,19.20
2022-12-15T04:07:59.849Z,18.17
2022-12-15T04:10:34.320Z,24.90
2022-12-15T04:13:06.702Z,22.02
2022-12-15T04:15:37.678Z,19.33
2022-12-15T04:18:10.032Z,21.05
2022-12-15T04:20:43.503Z,21.75
2022-12-15T04:23:13.532Z,18.95
2022-12-15T04:25:55.936Z,20.25
2022-12-15T04:28:38.739Z,22.17
2022-12-15T04:31:24.337Z,20.27
2022-12-15T04:34:10.318Z,19.60
2022-12-15T04:36:58.788Z,20.15
2022-12-15T04:39:41.225Z,21.35
2022-12-15T04:42:23.753Z,21.80
2022-12-15T04:45:16.988Z,21.05
2022-12-15T04:48:03.219Z,20.08
2022-12-15T04:50:45.876Z,21.50
2022-12-15T04:53:33.069Z,18.48
2022-12-15T04:56:18.679Z,26.67
2022-12-15T04:59:02.224Z,24.65
2022-12-15T05:01:45.079Z,23.60
2022-12-15T05:04:27.826Z,22.48
2022-12-15T05:07:10.475Z,19.38
2022-12-15T05:09:58.405Z,19.30
2022-12-15T05:12:45.048Z,20.92
2022-12-15T05:15:27.758Z,23.83
2022-12-15T05:18:10.218Z,22.25
2022-12-15T05:20:52.973Z,20.33
2022-12-15T05:23:35.584Z,19.45
2022-12-15T05:26:20.769Z,19.45
2022-12-15T05:31:45.685Z,16.42
2022-12-15T05:34:16.433Z,20.90
2022-12-15T05:36:46.414Z,20.23
2022-12-15T05:39:16.623Z,21.17
2022-12-15T05:41:49.594Z,23.83
2022-12-15T05:44:20.177Z,22.00
2022-12-15T05:46:50.470Z,22.83
2022-12-15T05:49:23.457Z,26.60
2022-12-15T05:51:53.705Z,28.33
2022-12-15T05:54:23.884Z,20.25
2022-12-15T05:56:56.455Z,20.65
2022-12-15T05:59:26.518Z,19.63
2022-12-15T06:01:56.489Z,20.10
2022-12-15T06:04:26.814Z,22.67
2022-12-15T06:06:56.776Z,21.23
2022-12-15T06:09:26.759Z,23.23
2022-12-15T06:11:59.299Z,24.00
2022-12-15T06:14:29.323Z,24.08
2022-12-15T06:17:00.080Z,23.85
2022-12-15T06:19:30.158Z,24.55
2022-12-15T06:22:00.131Z,21.23
2022-12-15T06:24:30.370Z,23.10
2022-12-15T06:27:02.960Z,28.30
2022-12-15T06:29:32.991Z,20.55
2022-12-15T06:32:04.520Z,25.52
2022-12-15T06:34:34.485Z,24.60
2022-12-15T06:37:04.649Z,27.77
2022-12-15T06:39:34.602Z,23.83
2022-12-15T06:42:07.450Z,24.17
2022-12-15T06:44:37.420Z,26.30
2022-12-15T06:47:07.588Z,22.73
2022-12-15T06:49:37.637Z,22.45
2022-12-15T06:52:07.833Z,21.10
2022-12-15T06:54:37.801Z,25.67
2022-12-15T06:57:10.423Z,22.00
2022-12-15T06:59:40.912Z,33.00
2022-12-15T07:02:22.469Z,29.13
2022-12-15T07:04:57.033Z,30.17
2022-12-15T07:07:27.731Z,28.42
2022-12-15T07:09:57.711Z,27.35
2022-12-15T07:12:30.313Z,26.00
2022-12-15T07:15:00.339Z,22.70
2022-12-15T07:17:30.365Z,29.60
2022-12-15T07:20:00.401Z,25.20
2022-12-15T07:22:31.675Z,27.83
2022-12-15T07:25:01.938Z,25.77
2022-12-15T07:27:34.526Z,24.65
2022-12-15T07:30:04.776Z,25.50
2022-12-15T07:32:34.894Z,24.55
2022-12-15T07:35:05.602Z,31.58
2022-12-15T07:37:35.567Z,23.77
2022-12-15T07:40:05.775Z,31.08
2022-12-15T07:42:38.375Z,30.00
2022-12-15T07:45:09.564Z,30.60
2022-12-15T07:47:39.738Z,28.50
2022-12-15T07:50:10.916Z,21.90
2022-12-15T07:52:40.882Z,26.95
2022-12-15T07:55:11.775Z,24.30
2022-12-15T07:57:44.481Z,25.33
2022-12-15T08:00:15.790Z,26.08
2022-12-15T08:02:45.905Z,29.27
2022-12-15T08:05:20.431Z,27.35
2022-12-15T08:07:50.363Z,22.88
2022-12-15T08:10:20.671Z,26.08
2022-12-15T08:12:53.353Z,30.55
2022-12-15T08:15:23.617Z,26.98
2022-12-15T08:17:53.600Z,28.95
2022-12-15T08:20:23.952Z,31.42
2022-12-15T08:22:54.932Z,31.45
2022-12-15T08:25:25.079Z,31.00
2022-12-15T08:27:57.950Z,33.63
2022-12-15T08:30:28.034Z,31.75
2022-12-15T08:32:58.222Z,28.10
2022-12-15T08:35:55.290Z,31.25
2022-12-15T08:38:18.581Z,28.70
2022-12-15T08:40:49.002Z,35.58
2022-12-15T08:43:21.587Z,32.47
2022-12-15T08:45:51.980Z,33.45
2022-12-15T08:48:23.174Z,32.00
2022-12-15T08:50:53.199Z,32.10
2022-12-15T08:53:33.325Z,35.38
2022-12-15T08:56:06.463Z,31.45
2022-12-15T08:58:39.731Z,41.10
2022-12-15T09:01:14.880Z,33.05
2022-12-15T09:03:49.941Z,39.53
2022-12-15T09:06:21.684Z,35.60
2022-12-15T09:08:51.968Z,37.85
2022-12-15T09:11:22.221Z,36.20
2022-12-15T09:13:54.788Z,36.58
2022-12-15T09:16:25.694Z,49.85
2022-12-15T09:18:57.598Z,55.65
2022-12-15T09:21:32.728Z,64.80
2022-12-15T09:24:04.281Z,76.25
2022-12-15T09:26:35.912Z,78.70
2022-12-15T09:29:08.550Z,68.53
2022-12-15T09:31:40.856Z,69.05
2022-12-15T09:34:10.820Z,63.50
2022-12-15T09:36:40.973Z,57.33
2022-12-15T09:39:12.202Z,47.20
2022-12-15T09:41:44.467Z,47.05
2022-12-15T09:44:20.318Z,40.42
2022-12-15T09:46:59.936Z,40.03
2022-12-15T09:49:48.450Z,38.97
2022-12-15T09:52:21.187Z,35.67
2022-12-15T09:54:51.345Z,40.35
2022-12-15T09:57:29.952Z,36.83
2022-12-15T10:00:21.938Z,38.47
2022-12-15T10:03:20.368Z,34.03
2022-12-15T10:06:18.091Z,32.05
2022-12-15T10:08:53.516Z,32.47
2022-12-15T10:11:38.850Z,41.78
2022-12-15T10:14:19.750Z,35.33
2022-12-15T10:17:02.508Z,34.47
2022-12-15T10:19:40.711Z,38.35
2022-12-15T10:22:16.208Z,41.20
2022-12-15T10:27:58.881Z,40.13
2022-12-15T10:30:29.048Z,33.45
2022-12-15T10:33:07.204Z,36.20
2022-12-15T10:35:39.824Z,35.47
2022-12-15T10:38:20.909Z,37.60
2022-12-15T10:40:54.955Z,34.05
2022-12-15T10:43:34.784Z,39.75
2022-12-15T10:46:08.651Z,34.05
2022-12-15T10:48:41.657Z,29.33
2022-12-15T10:51:21.597Z,29.60
2022-12-15T10:53:54.639Z,27.17
2022-12-15T10:56:33.156Z,28.88
2022-12-15T10:59:06.753Z,27.48
2022-12-15T11:01:38.081Z,25.23
2022-12-15T11:04:30.765Z,29.25
2022-12-15T11:07:02.037Z,25.88
2022-12-15T11:09:36.787Z,25.35
2022-12-15T11:12:32.477Z,26.48
2022-12-15T11:15:02.859Z,24.98
2022-12-15T11:17:43.815Z,25.33
2022-12-15T11:20:24.681Z,22.50
2022-12-15T11:23:01.535Z,21.50
2022-12-15T11:25:38.064Z,29.52
2022-12-15T11:28:13.997Z,29.05
2022-12-15T11:30:50.320Z,22.15
2022-12-15T11:33:20.502Z,25.73
2022-12-15T11:36:09.685Z,28.33
2022-12-15T11:38:46.553Z,24.50
2022-12-15T11:41:29.185Z,26.52
2022-12-15T11:44:13.596Z,26.15
2022-12-15T11:46:51.788Z,39.97
2022-12-15T11:52:20.548Z,29.20
2022-12-15T11:54:55.550Z,27.55
2022-12-15T11:57:57.463Z,27.48
2022-12-15T12:00:27.514Z,24.73
2022-12-15T12:03:14.924Z,32.83
2022-12-15T12:06:03.104Z,25.27
2022-12-15T12:08:59.298Z,26.17
2022-12-15T12:11:32.587Z,33.05
2022-12-15T12:14:15.900Z,23.38
2022-12-15T12:16:52.308Z,25.33
2022-12-15T12:19:26.574Z,31.08
2022-12-15T12:22:03.252Z,35.70
2022-12-15T12:24:41.647Z,27.48
2022-12-15T12:27:20.438Z,32.83
2022-12-15T12:29:54.256Z,31.27
2022-12-15T12:32:36.998Z,27.92
2022-12-15T12:35:30.490Z,28.77
2022-12-15T12:41:05.599Z,27.23
2022-12-15T12:43:37.171Z,32.47
2022-12-15T12:46:12.230Z,29.08
2022-12-15T12:48:48.532Z,29.05
2022-12-15T12:51:27.700Z,28.33
2022-12-15T12:53:58.354Z,26.23
2022-12-15T12:56:39.446Z,31.02
2022-12-15T12:59:39.208Z,31.25
2022-12-15T13:02:39.116Z,28.02
2022-12-15T13:05:37.284Z,28.40
2022-12-15T13:08:36.779Z,29.98
2022-12-15T13:11:36.558Z,28.20
2022-12-15T13:14:24.099Z,28.60
2022-12-15T13:20:23.365Z,26.13
2022-12-15T13:22:54.687Z,33.00
2022-12-15T13:25:37.374Z,29.15
2022-12-15T13:28:22.282Z,34.38
2022-12-15T13:31:25.213Z,31.77
2022-12-15T13:34:01.573Z,27.33
2022-12-15T13:40:00.711Z,26.42
2022-12-15T13:42:51.272Z,28.10
2022-12-15T13:45:50.271Z,26.60
2022-12-15T13:48:34.917Z,28.45
2022-12-15T13:51:30.557Z,33.80
2022-12-15T13:54:04.814Z,31.73
2022-12-15T13:56:57.778Z,32.75
2022-12-15T13:59:39.036Z,33.30
2022-12-15T14:02:27.150Z,30.48
2022-12-15T14:05:17.402Z,26.27
2022-12-15T14:07:54.826Z,29.88
2022-12-15T14:10:28.505Z,29.52
2022-12-15T14:13:00.928Z,30.67
2022-12-15T14:15:33.388Z,31.15
2022-12-15T14:18:04.993Z,30.98
2022-12-15T14:20:43.109Z,31.15
2022-12-15T14:23:27.770Z,32.40
2022-12-15T14:28:32.864Z,29.42
2022-12-15T14:31:06.641Z,24.75
2022-12-15T14:33:39.840Z,27.75
2022-12-15T14:36:13.706Z,26.50
2022-12-15T14:38:52.289Z,27.70
2022-12-15T14:41:24.920Z,28.85
2022-12-15T14:44:32.080Z,23.85
2022-12-15T14:46:51.129Z,24.88
2022-12-15T14:49:24.525Z,26.08
2022-12-15T14:51:59.776Z,27.60
2022-12-15T14:54:38.729Z,24.13
2022-12-15T14:57:18.067Z,28.77
2022-12-15T14:59:49.344Z,29.45
2022-12-15T15:02:25.269Z,27.05
2022-12-15T15:03:07.203Z,27.75
2022-12-15T15:03:11.382Z,25.77
2022-12-15T15:03:14.742Z,29.88
2022-12-15T15:05:02.623Z,25.83
2022-12-15T15:07:34.276Z,28.67
2022-12-15T15:12:47.887Z,35.55
2022-12-15T15:15:19.867Z,34.60
2022-12-15T15:17:57.726Z,24.48
2022-12-15T15:20:30.841Z,27.20
2022-12-15T15:23:19.706Z,30.08
2022-12-15T15:25:56.754Z,24.80
2022-12-15T15:28:29.671Z,32.88
2022-12-15T15:31:06.318Z,32.30
2022-12-15T15:33:36.484Z,28.17
2022-12-15T15:36:09.255Z,28.10
2022-12-15T15:38:42.484Z,30.55
2022-12-15T15:41:20.806Z,34.90
2022-12-15T15:43:51.052Z,30.77
2022-12-15T15:46:23.510Z,28.67
2022-12-15T15:48:56.433Z,29.40
2022-12-15T15:51:27.866Z,33.97
2022-12-15T15:54:02.815Z,30.48
2022-12-15T15:56:35.434Z,32.72
2022-12-15T15:59:13.911Z,31.23
2022-12-15T16:01:44.560Z,27.70
2022-12-15T16:04:15.029Z,30.13
2022-12-15T16:06:47.474Z,29.48
2022-12-15T16:09:19.054Z,32.40
2022-12-15T16:11:51.748Z,25.85
2022-12-15T16:14:21.820Z,31.95
2022-12-15T16:16:54.163Z,32.53
2022-12-15T16:19:27.725Z,26.63
2022-12-15T16:21:58.709Z,31.05
2022-12-15T16:24:29.036Z,29.63
2022-12-15T16:27:02.764Z,28.95
2022-12-15T16:29:32.834Z,32.17
2022-12-15T16:32:03.095Z,31.77
2022-12-15T16:34:33.114Z,30.02
2022-12-15T16:37:03.365Z,29.73
2022-12-15T16:39:35.971Z,31.73
2022-12-15T16:42:14.611Z,33.10
2022-12-15T16:44:44.979Z,32.08
2022-12-15T16:47:15.205Z,30.23
2022-12-15T16:49:45.633Z,37.22
2022-12-15T16:52:22.610Z,34.15
2022-12-15T16:54:53.077Z,30.27
2022-12-15T16:57:25.734Z,35.78
2022-12-15T16:59:55.766Z,32.15
2022-12-15T17:02:29.067Z,33.47
2022-12-15T17:04:59.368Z,31.75
2022-12-15T17:07:30.774Z,31.10
2022-12-15T17:10:00.967Z,31.10
2022-12-15T17:12:33.794Z,30.95
2022-12-15T17:15:04.371Z,27.02
2022-12-15T17:17:34.365Z,35.83
2022-12-15T17:20:28.545Z,37.30
2022-12-15T17:22:58.260Z,32.35
2022-12-15T17:26:18.223Z,30.20
2022-12-15T17:28:36.652Z,33.13
2022-12-15T17:31:07.102Z,32.58
2022-12-15T17:33:38.067Z,34.55
2022-12-15T17:36:17.955Z,32.15
2022-12-15T17:38:48.484Z,30.48
2022-12-15T17:41:42.448Z,33.88
2022-12-15T17:44:38.220Z,39.15
2022-12-15T17:47:10.932Z,31.67
2022-12-15T17:49:41.546Z,35.58
2022-12-15T17:52:22.830Z,32.33
2022-12-15T17:54:54.031Z,39.40
2022-12-15T17:57:24.769Z,39.05
2022-12-15T17:59:57.632Z,35.05
2022-12-15T18:02:28.491Z,42.65
2022-12-15T18:04:58.654Z,35.13
2022-12-15T18:07:28.653Z,35.30
2022-12-15T18:09:58.814Z,39.45
2022-12-15T18:12:30.249Z,39.25
2022-12-15T18:15:03.031Z,42.58
2022-12-15T18:17:33.325Z,41.40
2022-12-15T18:20:04.807Z,42.72
2022-12-15T18:22:34.820Z,36.38
2022-12-15T18:25:04.852Z,36.47
2022-12-15T18:27:35.129Z,35.03
2022-12-15T18:30:08.942Z,34.17
2022-12-15T18:32:42.154Z,35.95
2022-12-15T18:35:22.671Z,30.30
2022-12-15T18:37:53.876Z,39.42
2022-12-15T18:40:26.924Z,42.35
2022-12-15T18:42:57.152Z,31.88
2022-12-15T18:45:30.430Z,36.30
2022-12-15T18:48:00.661Z,42.10
2022-12-15T18:50:30.761Z,35.67
2022-12-15T18:53:02.846Z,32.20
2022-12-15T18:55:34.101Z,33.20
2022-12-15T18:58:04.348Z,35.28
2022-12-15T19:00:37.243Z,40.42
2022-12-15T19:03:07.554Z,33.13
2022-12-15T19:05:37.811Z,38.55
2022-12-15T19:08:13.316Z,31.63
2022-12-15T19:10:53.234Z,33.53
2022-12-15T19:13:25.138Z,33.90
2022-12-15T19:15:57.815Z,33.25
2022-12-15T19:18:40.729Z,34.30
2022-12-15T19:21:43.761Z,31.83
2022-12-15T19:24:15.935Z,37.05
2022-12-15T19:26:46.924Z,32.03
2022-12-15T19:29:20.085Z,31.65
2022-12-15T19:31:53.676Z,33.13
2022-12-15T19:34:23.910Z,33.45
2022-12-15T19:36:53.951Z,31.10
2022-12-15T19:39:26.959Z,29.25
2022-12-15T19:41:57.141Z,31.30
2022-12-15T19:44:27.567Z,32.28
2022-12-15T19:47:00.737Z,28.83
2022-12-15T19:49:30.995Z,31.33
2022-12-15T19:52:01.071Z,35.90
2022-12-15T19:54:31.488Z,32.60
2022-12-15T19:57:01.638Z,33.45
2022-12-15T19:59:31.911Z,40.63
2022-12-15T20:02:04.712Z,35.53
2022-12-15T20:04:38.439Z,37.25
2022-12-15T20:07:08.787Z,31.75
2022-12-15T20:09:39.046Z,33.20
2022-12-15T20:12:12.005Z,31.42
2022-12-15T20:14:42.968Z,31.77
2022-12-15T20:17:15.629Z,30.30
2022-12-15T20:19:45.854Z,34.05
2022-12-15T20:22:18.566Z,31.63
2022-12-15T20:24:50.797Z,34.13
2022-12-15T20:27:22.527Z,32.22
2022-12-15T20:32:24.976Z,35.40
2022-12-15T20:34:57.404Z,29.00
2022-12-15T20:37:32.376Z,31.45
2022-12-15T20:40:02.381Z,32.67
2022-12-15T20:42:32.658Z,26.35
2022-12-15T20:45:02.664Z,33.35
2022-12-15T20:47:44.338Z,33.63
2022-12-15T20:50:26.981Z,28.45
2022-12-15T20:53:00.773Z,29.45
2022-12-15T20:55:31.587Z,31.60
2022-12-15T20:58:01.919Z,30.48
2022-12-15T21:00:32.368Z,38.13
2022-12-15T21:03:05.215Z,41.90
2022-12-15T21:05:35.538Z,35.30
2022-12-15T21:08:06.185Z,39.05
2022-12-15T21:10:36.557Z,45.08
2022-12-15T21:13:13.339Z,44.38
2022-12-15T21:15:43.560Z,49.45
2022-12-15T21:19:10.775Z,53.58
2022-12-15T21:21:21.097Z,49.20
2022-12-15T21:23:51.503Z,44.03
2022-12-15T21:26:25.033Z,45.40
2022-12-15T21:28:59.232Z,58.70
2022-12-15T21:31:30.123Z,50.47
2022-12-15T21:34:02.840Z,40.00
2022-12-15T21:36:35.741Z,48.08
2022-12-15T21:39:09.296Z,47.03
2022-12-15T21:41:40.190Z,53.85
2022-12-15T21:44:15.292Z,50.55
2022-12-15T21:46:45.598Z,45.95
2022-12-15T21:49:18.609Z,42.92
2022-12-15T21:51:52.017Z,47.78
2022-12-15T21:54:30.870Z,52.53
2022-12-15T21:57:01.864Z,44.03
2022-12-15T21:59:33.924Z,45.53
2022-12-15T22:02:04.825Z,43.08
2022-12-15T22:04:38.326Z,40.60
2022-12-15T22:07:12.218Z,45.83
2022-12-15T22:09:42.246Z,47.53
2022-12-15T22:12:21.743Z,47.75
2022-12-15T22:14:53.528Z,36.97
2022-12-15T22:19:57.424Z,39.15
2022-12-15T22:22:31.778Z,39.92
2022-12-15T22:25:02.078Z,35.58
2022-12-15T22:27:38.252Z,38.92
2022-12-15T22:30:16.406Z,37.72
2022-12-15T22:32:50.278Z,42.75
2022-12-15T22:35:25.612Z,40.90
2022-12-15T22:37:56.591Z,38.97
2022-12-15T22:40:27.736Z,36.05
2022-12-15T22:43:00.766Z,33.85
2022-12-15T22:45:31.020Z,30.27
2022-12-15T22:48:01.056Z,25.92
2022-12-15T22:50:34.326Z,23.98
2022-12-15T22:53:04.683Z,24.15
2022-12-15T22:55:34.677Z,22.27
2022-12-15T22:58:09.802Z,22.20
2022-12-15T23:00:40.051Z,20.60
2022-12-15T23:03:13.573Z,22.05
2022-12-15T23:05:46.511Z,24.17
2022-12-15T23:08:16.746Z,22.75
2022-12-15T23:10:59.246Z,23.83
2022-12-15T23:13:29.774Z,17.95
2022-12-15T23:16:12.862Z,21.25
2022-12-15T23:18:42.921Z,21.95
2022-12-15T23:21:15.606Z,22.80
2022-12-15T23:23:46.099Z,18.85
2022-12-15T23:26:16.899Z,19.58
2022-12-15T23:28:47.622Z,22.73
2022-12-15T23:31:17.792Z,19.35
2022-12-15T23:33:48.248Z,18.85
2022-12-15T23:36:20.843Z,23.85
2022-12-15T23:38:51.166Z,26.48
2022-12-15T23:41:22.032Z,27.30
2022-12-15T23:43:54.452Z,24.38
2022-12-15T23:46:24.472Z,24.30
2022-12-15T23:48:55.083Z,26.83
2022-12-15T23:51:27.735Z,24.08
2022-12-15T23:53:59.406Z,21.98
2022-12-15T23:56:29.511Z,22.17
2022-12-15T23:59:01.361Z,25.92
